sensor_id;sensor_type;location;lat;lon;timestamp;P1;durP1;ratioP1;P2;durP2;ratioP2
76667;SDS011;65585;51.166;16.922;2024-01-07T00:01:48;11.68;;;5.75;;
76667;SDS011;65585;51.166;16.922;2024-01-07T00:04:15;11.80;;;6.43;;
76667;SDS011;65585;51.166;16.922;2024-01-07T00:06:41;13.45;;;6.68;;
76667;SDS011;65585;51.166;16.922;2024-01-07T00:09:08;9.23;;;5.40;;
76667;SDS011;65585;51.166;16.922;2024-01-07T00:11:34;9.00;;;5.65;;
76667;SDS011;65585;51.166;16.922;2024-01-07T00:14:00;10.25;;;6.32;;
76667;SDS011;65585;51.166;16.922;2024-01-07T00:16:26;11.55;;;6.68;;
76667;SDS011;65585;51.166;16.922;2024-01-07T00:18:52;11.00;;;5.45;;
76667;SDS011;65585;51.166;16.922;2024-01-07T00:21:18;12.95;;;6.80;;
76667;SDS011;65585;51.166;16.922;2024-01-07T00:23:44;13.80;;;7.13;;
76667;SDS011;65585;51.166;16.922;2024-01-07T00:26:10;13.95;;;6.32;;
76667;SDS011;65585;51.166;16.922;2024-01-07T00:28:36;11.32;;;5.70;;
76667;SDS011;65585;51.166;16.922;2024-01-07T00:31:01;9.13;;;5.75;;
76667;SDS011;65585;51.166;16.922;2024-01-07T00:33:29;10.57;;;7.25;;
76667;SDS011;65585;51.166;16.922;2024-01-07T00:35:56;12.30;;;5.72;;
76667;SDS011;65585;51.166;16.922;2024-01-07T00:38:23;10.85;;;6.00;;
76667;SDS011;65585;51.166;16.922;2024-01-07T00:40:48;13.18;;;6.18;;
76667;SDS011;65585;51.166;16.922;2024-01-07T00:43:14;12.35;;;6.45;;
76667;SDS011;65585;51.166;16.922;2024-01-07T00:45:40;14.93;;;5.50;;
76667;SDS011;65585;51.166;16.922;2024-01-07T00:48:11;10.15;;;4.93;;
76667;SDS011;65585;51.166;16.922;2024-01-07T00:50:37;9.32;;;4.55;;
76667;SDS011;65585;51.166;16.922;2024-01-07T00:53:03;8.15;;;4.88;;
76667;SDS011;65585;51.166;16.922;2024-01-07T00:55:29;7.40;;;4.90;;
76667;SDS011;65585;51.166;16.922;2024-01-07T00:57:56;8.32;;;5.57;;
76667;SDS011;65585;51.166;16.922;2024-01-07T01:00:21;10.35;;;5.30;;
76667;SDS011;65585;51.166;16.922;2024-01-07T01:02:48;8.95;;;6.03;;
76667;SDS011;65585;51.166;16.922;2024-01-07T01:05:13;8.82;;;5.05;;
76667;SDS011;65585;51.166;16.922;2024-01-07T01:07:39;11.32;;;5.28;;
76667;SDS011;65585;51.166;16.922;2024-01-07T01:10:06;10.45;;;5.22;;
76667;SDS011;65585;51.166;16.922;2024-01-07T01:12:33;12.27;;;5.57;;
76667;SDS011;65585;51.166;16.922;2024-01-07T01:14:59;7.43;;;4.38;;
76667;SDS011;65585;51.166;16.922;2024-01-07T01:17:25;7.75;;;5.22;;
76667;SDS011;65585;51.166;16.922;2024-01-07T01:19:51;10.10;;;4.88;;
76667;SDS011;65585;51.166;16.922;2024-01-07T01:22:17;8.15;;;4.78;;
76667;SDS011;65585;51.166;16.922;2024-01-07T01:24:43;8.13;;;5.22;;
76667;SDS011;65585;51.166;16.922;2024-01-07T01:29:38;8.32;;;4.38;;
76667;SDS011;65585;51.166;16.922;2024-01-07T01:32:05;6.28;;;4.65;;
76667;SDS011;65585;51.166;16.922;2024-01-07T01:34:32;8.90;;;4.63;;
76667;SDS011;65585;51.166;16.922;2024-01-07T01:36:58;9.90;;;5.40;;
76667;SDS011;65585;51.166;16.922;2024-01-07T01:39:24;8.98;;;4.85;;
76667;SDS011;65585;51.166;16.922;2024-01-07T01:41:50;7.00;;;3.58;;
76667;SDS011;65585;51.166;16.922;2024-01-07T01:44:16;9.73;;;4.78;;
76667;SDS011;65585;51.166;16.922;2024-01-07T01:46:42;9.70;;;5.45;;
76667;SDS011;65585;51.166;16.922;2024-01-07T01:49:10;10.30;;;6.40;;
76667;SDS011;65585;51.166;16.922;2024-01-07T01:51:37;10.27;;;5.35;;
76667;SDS011;65585;51.166;16.922;2024-01-07T01:54:03;10.05;;;5.15;;
76667;SDS011;65585;51.166;16.922;2024-01-07T01:56:29;9.70;;;5.43;;
76667;SDS011;65585;51.166;16.922;2024-01-07T01:58:55;9.43;;;5.05;;
76667;SDS011;65585;51.166;16.922;2024-01-07T02:01:22;9.65;;;6.18;;
76667;SDS011;65585;51.166;16.922;2024-01-07T02:03:48;11.82;;;6.75;;
76667;SDS011;65585;51.166;16.922;2024-01-07T02:06:15;11.65;;;6.30;;
76667;SDS011;65585;51.166;16.922;2024-01-07T02:08:41;10.55;;;6.43;;
76667;SDS011;65585;51.166;16.922;2024-01-07T02:11:17;9.98;;;6.15;;
76667;SDS011;65585;51.166;16.922;2024-01-07T02:13:44;12.13;;;5.50;;
76667;SDS011;65585;51.166;16.922;2024-01-07T02:16:11;12.57;;;6.22;;
76667;SDS011;65585;51.166;16.922;2024-01-07T02:18:40;9.13;;;5.43;;
76667;SDS011;65585;51.166;16.922;2024-01-07T02:21:08;9.95;;;5.15;;
76667;SDS011;65585;51.166;16.922;2024-01-07T02:23:34;13.48;;;6.35;;
76667;SDS011;65585;51.166;16.922;2024-01-07T02:26:01;9.27;;;5.85;;
76667;SDS011;65585;51.166;16.922;2024-01-07T02:28:27;12.30;;;6.10;;
76667;SDS011;65585;51.166;16.922;2024-01-07T02:30:53;8.98;;;6.25;;
76667;SDS011;65585;51.166;16.922;2024-01-07T02:33:19;9.32;;;5.47;;
76667;SDS011;65585;51.166;16.922;2024-01-07T02:35:45;12.07;;;5.95;;
76667;SDS011;65585;51.166;16.922;2024-01-07T02:38:11;12.68;;;6.82;;
76667;SDS011;65585;51.166;16.922;2024-01-07T02:40:37;11.50;;;4.65;;
76667;SDS011;65585;51.166;16.922;2024-01-07T02:43:03;11.77;;;5.85;;
76667;SDS011;65585;51.166;16.922;2024-01-07T02:45:30;11.55;;;5.35;;
76667;SDS011;65585;51.166;16.922;2024-01-07T02:47:55;12.63;;;5.63;;
76667;SDS011;65585;51.166;16.922;2024-01-07T02:50:21;9.23;;;5.30;;
76667;SDS011;65585;51.166;16.922;2024-01-07T02:52:47;9.63;;;5.07;;
76667;SDS011;65585;51.166;16.922;2024-01-07T02:55:13;12.77;;;5.57;;
76667;SDS011;65585;51.166;16.922;2024-01-07T02:57:39;9.00;;;5.93;;
76667;SDS011;65585;51.166;16.922;2024-01-07T03:00:05;9.98;;;4.95;;
76667;SDS011;65585;51.166;16.922;2024-01-07T03:02:32;11.23;;;5.82;;
76667;SDS011;65585;51.166;16.922;2024-01-07T03:04:58;9.30;;;5.75;;
76667;SDS011;65585;51.166;16.922;2024-01-07T03:07:24;8.57;;;6.03;;
76667;SDS011;65585;51.166;16.922;2024-01-07T03:09:50;7.53;;;4.70;;
76667;SDS011;65585;51.166;16.922;2024-01-07T03:12:16;9.35;;;5.88;;
76667;SDS011;65585;51.166;16.922;2024-01-07T03:14:42;11.88;;;6.00;;
76667;SDS011;65585;51.166;16.922;2024-01-07T03:17:11;9.60;;;5.55;;
76667;SDS011;65585;51.166;16.922;2024-01-07T03:19:38;9.95;;;5.65;;
76667;SDS011;65585;51.166;16.922;2024-01-07T03:22:04;7.93;;;5.13;;
76667;SDS011;65585;51.166;16.922;2024-01-07T03:24:33;9.55;;;6.28;;
76667;SDS011;65585;51.166;16.922;2024-01-07T03:26:58;11.88;;;5.68;;
76667;SDS011;65585;51.166;16.922;2024-01-07T03:29:25;9.88;;;6.15;;
76667;SDS011;65585;51.166;16.922;2024-01-07T03:31:50;13.25;;;6.70;;
76667;SDS011;65585;51.166;16.922;2024-01-07T03:34:18;8.07;;;6.32;;
76667;SDS011;65585;51.166;16.922;2024-01-07T03:36:45;9.10;;;5.70;;
76667;SDS011;65585;51.166;16.922;2024-01-07T03:39:11;10.43;;;5.88;;
76667;SDS011;65585;51.166;16.922;2024-01-07T03:41:37;10.10;;;6.05;;
76667;SDS011;65585;51.166;16.922;2024-01-07T03:44:03;10.70;;;6.13;;
76667;SDS011;65585;51.166;16.922;2024-01-07T03:46:29;6.43;;;4.97;;
76667;SDS011;65585;51.166;16.922;2024-01-07T03:48:55;8.18;;;6.10;;
76667;SDS011;65585;51.166;16.922;2024-01-07T03:51:21;9.50;;;5.95;;
76667;SDS011;65585;51.166;16.922;2024-01-07T03:53:47;8.45;;;5.40;;
76667;SDS011;65585;51.166;16.922;2024-01-07T03:56:13;9.68;;;4.93;;
76667;SDS011;65585;51.166;16.922;2024-01-07T03:58:39;6.68;;;4.43;;
76667;SDS011;65585;51.166;16.922;2024-01-07T04:01:05;8.70;;;5.70;;
76667;SDS011;65585;51.166;16.922;2024-01-07T04:03:31;11.43;;;4.95;;
76667;SDS011;65585;51.166;16.922;2024-01-07T04:05:56;7.25;;;4.72;;
76667;SDS011;65585;51.166;16.922;2024-01-07T04:08:23;7.95;;;5.60;;
76667;SDS011;65585;51.166;16.922;2024-01-07T04:10:49;7.70;;;6.05;;
76667;SDS011;65585;51.166;16.922;2024-01-07T04:13:16;9.57;;;5.80;;
76667;SDS011;65585;51.166;16.922;2024-01-07T04:15:42;6.95;;;4.75;;
76667;SDS011;65585;51.166;16.922;2024-01-07T04:18:08;7.57;;;4.85;;
76667;SDS011;65585;51.166;16.922;2024-01-07T04:20:33;8.65;;;4.78;;
76667;SDS011;65585;51.166;16.922;2024-01-07T04:22:59;9.88;;;5.10;;
76667;SDS011;65585;51.166;16.922;2024-01-07T04:25:25;6.80;;;4.22;;
76667;SDS011;65585;51.166;16.922;2024-01-07T04:27:51;8.35;;;4.10;;
76667;SDS011;65585;51.166;16.922;2024-01-07T04:30:17;8.82;;;4.70;;
76667;SDS011;65585;51.166;16.922;2024-01-07T04:32:43;7.57;;;4.88;;
76667;SDS011;65585;51.166;16.922;2024-01-07T04:35:09;7.63;;;4.88;;
76667;SDS011;65585;51.166;16.922;2024-01-07T04:37:36;6.88;;;4.63;;
76667;SDS011;65585;51.166;16.922;2024-01-07T04:40:02;7.68;;;4.47;;
76667;SDS011;65585;51.166;16.922;2024-01-07T04:42:29;10.85;;;4.65;;
76667;SDS011;65585;51.166;16.922;2024-01-07T04:44:55;8.13;;;4.38;;
76667;SDS011;65585;51.166;16.922;2024-01-07T04:47:28;8.38;;;4.88;;
76667;SDS011;65585;51.166;16.922;2024-01-07T04:49:59;9.88;;;5.32;;
76667;SDS011;65585;51.166;16.922;2024-01-07T04:52:25;7.70;;;4.68;;
76667;SDS011;65585;51.166;16.922;2024-01-07T04:54:52;6.60;;;4.70;;
76667;SDS011;65585;51.166;16.922;2024-01-07T04:57:19;9.25;;;4.55;;
76667;SDS011;65585;51.166;16.922;2024-01-07T04:59:45;7.13;;;4.57;;
76667;SDS011;65585;51.166;16.922;2024-01-07T05:02:15;4.95;;;3.65;;
76667;SDS011;65585;51.166;16.922;2024-01-07T05:04:41;5.28;;;3.67;;
76667;SDS011;65585;51.166;16.922;2024-01-07T05:07:07;7.43;;;4.53;;
76667;SDS011;65585;51.166;16.922;2024-01-07T05:09:33;6.47;;;4.28;;
76667;SDS011;65585;51.166;16.922;2024-01-07T05:11:59;8.52;;;4.15;;
76667;SDS011;65585;51.166;16.922;2024-01-07T05:14:26;8.05;;;4.38;;
76667;SDS011;65585;51.166;16.922;2024-01-07T05:16:55;7.45;;;4.65;;
76667;SDS011;65585;51.166;16.922;2024-01-07T05:19:21;5.43;;;3.97;;
76667;SDS011;65585;51.166;16.922;2024-01-07T05:21:47;8.35;;;5.32;;
76667;SDS011;65585;51.166;16.922;2024-01-07T05:24:13;6.57;;;4.03;;
76667;SDS011;65585;51.166;16.922;2024-01-07T05:26:42;6.15;;;4.05;;
76667;SDS011;65585;51.166;16.922;2024-01-07T05:29:09;5.90;;;3.40;;
76667;SDS011;65585;51.166;16.922;2024-01-07T05:31:35;8.65;;;4.50;;
76667;SDS011;65585;51.166;16.922;2024-01-07T05:34:01;6.10;;;4.05;;
76667;SDS011;65585;51.166;16.922;2024-01-07T05:36:27;4.47;;;3.40;;
76667;SDS011;65585;51.166;16.922;2024-01-07T05:38:53;5.60;;;3.53;;
76667;SDS011;65585;51.166;16.922;2024-01-07T05:41:19;7.30;;;4.00;;
76667;SDS011;65585;51.166;16.922;2024-01-07T05:43:45;7.90;;;4.13;;
76667;SDS011;65585;51.166;16.922;2024-01-07T05:46:11;7.50;;;4.85;;
76667;SDS011;65585;51.166;16.922;2024-01-07T05:48:41;7.65;;;4.30;;
76667;SDS011;65585;51.166;16.922;2024-01-07T05:51:11;7.15;;;4.30;;
76667;SDS011;65585;51.166;16.922;2024-01-07T05:53:37;4.70;;;3.25;;
76667;SDS011;65585;51.166;16.922;2024-01-07T05:56:04;7.00;;;4.32;;
76667;SDS011;65585;51.166;16.922;2024-01-07T05:58:30;14.05;;;4.20;;
76667;SDS011;65585;51.166;16.922;2024-01-07T06:00:56;5.43;;;3.75;;
76667;SDS011;65585;51.166;16.922;2024-01-07T06:03:21;6.55;;;3.83;;
76667;SDS011;65585;51.166;16.922;2024-01-07T06:05:48;10.07;;;4.63;;
76667;SDS011;65585;51.166;16.922;2024-01-07T06:08:14;3.88;;;2.67;;
76667;SDS011;65585;51.166;16.922;2024-01-07T06:10:40;5.28;;;3.97;;
76667;SDS011;65585;51.166;16.922;2024-01-07T06:13:06;7.22;;;3.50;;
76667;SDS011;65585;51.166;16.922;2024-01-07T06:15:32;8.57;;;5.18;;
76667;SDS011;65585;51.166;16.922;2024-01-07T06:17:58;6.32;;;4.47;;
76667;SDS011;65585;51.166;16.922;2024-01-07T06:20:24;7.00;;;3.90;;
76667;SDS011;65585;51.166;16.922;2024-01-07T06:22:50;5.68;;;4.07;;
76667;SDS011;65585;51.166;16.922;2024-01-07T06:25:16;6.43;;;4.18;;
76667;SDS011;65585;51.166;16.922;2024-01-07T06:27:42;6.93;;;4.68;;
76667;SDS011;65585;51.166;16.922;2024-01-07T06:30:08;9.93;;;4.18;;
76667;SDS011;65585;51.166;16.922;2024-01-07T06:32:34;6.28;;;4.38;;
76667;SDS011;65585;51.166;16.922;2024-01-07T06:35:01;6.25;;;4.40;;
76667;SDS011;65585;51.166;16.922;2024-01-07T06:37:28;6.90;;;4.75;;
76667;SDS011;65585;51.166;16.922;2024-01-07T06:39:56;4.72;;;3.97;;
76667;SDS011;65585;51.166;16.922;2024-01-07T06:42:23;4.47;;;2.85;;
76667;SDS011;65585;51.166;16.922;2024-01-07T06:44:50;6.70;;;4.25;;
76667;SDS011;65585;51.166;16.922;2024-01-07T06:47:16;6.35;;;4.03;;
76667;SDS011;65585;51.166;16.922;2024-01-07T06:49:42;4.57;;;2.78;;
76667;SDS011;65585;51.166;16.922;2024-01-07T06:52:07;7.03;;;3.83;;
76667;SDS011;65585;51.166;16.922;2024-01-07T06:54:34;6.82;;;3.28;;
76667;SDS011;65585;51.166;16.922;2024-01-07T06:56:59;6.10;;;3.70;;
76667;SDS011;65585;51.166;16.922;2024-01-07T06:59:25;4.40;;;3.53;;
76667;SDS011;65585;51.166;16.922;2024-01-07T07:01:51;3.00;;;2.55;;
76667;SDS011;65585;51.166;16.922;2024-01-07T07:04:19;7.80;;;3.25;;
76667;SDS011;65585;51.166;16.922;2024-01-07T07:06:45;5.75;;;3.20;;
76667;SDS011;65585;51.166;16.922;2024-01-07T07:09:11;5.93;;;4.38;;
76667;SDS011;65585;51.166;16.922;2024-01-07T07:11:38;6.55;;;3.45;;
76667;SDS011;65585;51.166;16.922;2024-01-07T07:14:05;5.40;;;3.53;;
76667;SDS011;65585;51.166;16.922;2024-01-07T07:16:31;5.72;;;3.10;;
76667;SDS011;65585;51.166;16.922;2024-01-07T07:18:58;7.88;;;4.40;;
76667;SDS011;65585;51.166;16.922;2024-01-07T07:21:23;9.10;;;4.07;;
76667;SDS011;65585;51.166;16.922;2024-01-07T07:23:49;6.95;;;3.83;;
76667;SDS011;65585;51.166;16.922;2024-01-07T07:26:15;5.20;;;2.95;;
76667;SDS011;65585;51.166;16.922;2024-01-07T07:28:41;8.23;;;4.53;;
76667;SDS011;65585;51.166;16.922;2024-01-07T07:31:07;5.70;;;4.00;;
76667;SDS011;65585;51.166;16.922;2024-01-07T07:33:33;4.55;;;3.38;;
76667;SDS011;65585;51.166;16.922;2024-01-07T07:35:59;4.03;;;2.90;;
76667;SDS011;65585;51.166;16.922;2024-01-07T07:38:25;5.47;;;3.25;;
76667;SDS011;65585;51.166;16.922;2024-01-07T07:40:51;7.00;;;3.60;;
76667;SDS011;65585;51.166;16.922;2024-01-07T07:43:19;5.30;;;3.03;;
76667;SDS011;65585;51.166;16.922;2024-01-07T07:45:46;5.43;;;2.90;;
76667;SDS011;65585;51.166;16.922;2024-01-07T07:48:12;4.35;;;2.83;;
76667;SDS011;65585;51.166;16.922;2024-01-07T07:50:38;4.68;;;2.95;;
76667;SDS011;65585;51.166;16.922;2024-01-07T07:53:06;5.15;;;2.55;;
76667;SDS011;65585;51.166;16.922;2024-01-07T07:55:32;5.00;;;3.08;;
76667;SDS011;65585;51.166;16.922;2024-01-07T07:57:58;5.32;;;3.17;;
76667;SDS011;65585;51.166;16.922;2024-01-07T08:00:24;3.03;;;2.47;;
76667;SDS011;65585;51.166;16.922;2024-01-07T08:02:50;3.58;;;2.78;;
76667;SDS011;65585;51.166;16.922;2024-01-07T08:05:16;3.85;;;2.45;;
76667;SDS011;65585;51.166;16.922;2024-01-07T08:07:42;3.95;;;2.50;;
76667;SDS011;65585;51.166;16.922;2024-01-07T08:10:08;4.72;;;2.47;;
76667;SDS011;65585;51.166;16.922;2024-01-07T08:12:34;4.57;;;3.60;;
76667;SDS011;65585;51.166;16.922;2024-01-07T08:15:01;3.45;;;2.85;;
76667;SDS011;65585;51.166;16.922;2024-01-07T08:17:28;5.53;;;2.55;;
76667;SDS011;65585;51.166;16.922;2024-01-07T08:19:54;4.43;;;2.80;;
76667;SDS011;65585;51.166;16.922;2024-01-07T08:22:20;4.93;;;3.00;;
76667;SDS011;65585;51.166;16.922;2024-01-07T08:24:46;12.85;;;6.57;;
76667;SDS011;65585;51.166;16.922;2024-01-07T08:27:12;3.88;;;2.95;;
76667;SDS011;65585;51.166;16.922;2024-01-07T08:29:38;4.88;;;3.08;;
76667;SDS011;65585;51.166;16.922;2024-01-07T08:32:04;8.38;;;4.45;;
76667;SDS011;65585;51.166;16.922;2024-01-07T08:34:30;7.10;;;3.50;;
76667;SDS011;65585;51.166;16.922;2024-01-07T08:36:56;8.85;;;5.35;;
76667;SDS011;65585;51.166;16.922;2024-01-07T08:39:22;4.53;;;3.30;;
76667;SDS011;65585;51.166;16.922;2024-01-07T08:41:48;5.97;;;4.32;;
76667;SDS011;65585;51.166;16.922;2024-01-07T08:44:14;8.65;;;4.78;;
76667;SDS011;65585;51.166;16.922;2024-01-07T08:46:40;8.43;;;4.95;;
76667;SDS011;65585;51.166;16.922;2024-01-07T08:49:05;10.25;;;5.15;;
76667;SDS011;65585;51.166;16.922;2024-01-07T08:51:32;7.70;;;4.00;;
76667;SDS011;65585;51.166;16.922;2024-01-07T08:53:57;6.25;;;4.57;;
76667;SDS011;65585;51.166;16.922;2024-01-07T08:56:24;7.07;;;4.40;;
76667;SDS011;65585;51.166;16.922;2024-01-07T08:58:50;7.32;;;4.25;;
76667;SDS011;65585;51.166;16.922;2024-01-07T09:01:17;6.97;;;4.22;;
76667;SDS011;65585;51.166;16.922;2024-01-07T09:03:43;5.85;;;4.13;;
76667;SDS011;65585;51.166;16.922;2024-01-07T09:06:09;6.68;;;4.28;;
76667;SDS011;65585;51.166;16.922;2024-01-07T09:08:35;5.60;;;3.42;;
76667;SDS011;65585;51.166;16.922;2024-01-07T09:11:04;7.30;;;4.07;;
76667;SDS011;65585;51.166;16.922;2024-01-07T09:13:31;6.10;;;4.30;;
76667;SDS011;65585;51.166;16.922;2024-01-07T09:15:58;7.43;;;4.07;;
76667;SDS011;65585;51.166;16.922;2024-01-07T09:18:23;5.72;;;3.70;;
76667;SDS011;65585;51.166;16.922;2024-01-07T09:20:49;4.72;;;3.50;;
76667;SDS011;65585;51.166;16.922;2024-01-07T09:23:15;5.40;;;3.60;;
76667;SDS011;65585;51.166;16.922;2024-01-07T09:25:41;6.28;;;3.30;;
76667;SDS011;65585;51.166;16.922;2024-01-07T09:28:07;5.18;;;3.28;;
76667;SDS011;65585;51.166;16.922;2024-01-07T09:30:33;4.57;;;3.00;;
76667;SDS011;65585;51.166;16.922;2024-01-07T09:32:59;6.75;;;3.45;;
76667;SDS011;65585;51.166;16.922;2024-01-07T09:35:25;5.38;;;3.45;;
76667;SDS011;65585;51.166;16.922;2024-01-07T09:37:51;5.80;;;3.85;;
76667;SDS011;65585;51.166;16.922;2024-01-07T09:40:17;6.45;;;3.40;;
76667;SDS011;65585;51.166;16.922;2024-01-07T09:42:46;6.15;;;3.15;;
76667;SDS011;65585;51.166;16.922;2024-01-07T09:45:13;4.50;;;3.30;;
76667;SDS011;65585;51.166;16.922;2024-01-07T09:47:39;5.50;;;3.85;;
76667;SDS011;65585;51.166;16.922;2024-01-07T09:50:06;4.50;;;3.35;;
76667;SDS011;65585;51.166;16.922;2024-01-07T09:52:34;7.55;;;3.80;;
76667;SDS011;65585;51.166;16.922;2024-01-07T09:55:02;5.60;;;3.40;;
76667;SDS011;65585;51.166;16.922;2024-01-07T09:57:29;3.80;;;2.78;;
76667;SDS011;65585;51.166;16.922;2024-01-07T09:59:55;3.25;;;2.40;;
76667;SDS011;65585;51.166;16.922;2024-01-07T10:02:21;3.45;;;2.83;;
76667;SDS011;65585;51.166;16.922;2024-01-07T10:04:50;5.00;;;3.67;;
76667;SDS011;65585;51.166;16.922;2024-01-07T10:07:16;5.40;;;3.40;;
76667;SDS011;65585;51.166;16.922;2024-01-07T10:09:43;3.70;;;2.80;;
76667;SDS011;65585;51.166;16.922;2024-01-07T10:12:09;4.40;;;3.47;;
76667;SDS011;65585;51.166;16.922;2024-01-07T10:14:35;5.30;;;2.67;;
76667;SDS011;65585;51.166;16.922;2024-01-07T10:17:01;4.93;;;3.30;;
76667;SDS011;65585;51.166;16.922;2024-01-07T10:19:27;6.15;;;2.92;;
76667;SDS011;65585;51.166;16.922;2024-01-07T10:22:00;5.53;;;3.60;;
76667;SDS011;65585;51.166;16.922;2024-01-07T10:24:37;8.52;;;2.83;;
76667;SDS011;65585;51.166;16.922;2024-01-07T10:27:04;5.80;;;3.67;;
76667;SDS011;65585;51.166;16.922;2024-01-07T10:29:32;5.05;;;3.38;;
76667;SDS011;65585;51.166;16.922;2024-01-07T10:31:58;5.45;;;3.40;;
76667;SDS011;65585;51.166;16.922;2024-01-07T10:34:30;6.85;;;4.22;;
76667;SDS011;65585;51.166;16.922;2024-01-07T10:36:58;4.95;;;2.97;;
76667;SDS011;65585;51.166;16.922;2024-01-07T10:39:25;4.63;;;2.88;;
76667;SDS011;65585;51.166;16.922;2024-01-07T10:41:54;5.68;;;3.28;;
76667;SDS011;65585;51.166;16.922;2024-01-07T10:44:25;3.65;;;3.10;;
76667;SDS011;65585;51.166;16.922;2024-01-07T10:46:53;6.18;;;3.15;;
76667;SDS011;65585;51.166;16.922;2024-01-07T10:49:21;3.42;;;2.50;;
76667;SDS011;65585;51.166;16.922;2024-01-07T10:51:56;6.70;;;3.80;;
76667;SDS011;65585;51.166;16.922;2024-01-07T10:54:34;5.75;;;2.75;;
76667;SDS011;65585;51.166;16.922;2024-01-07T10:57:04;4.75;;;2.70;;
76667;SDS011;65585;51.166;16.922;2024-01-07T10:59:35;5.78;;;3.47;;
76667;SDS011;65585;51.166;16.922;2024-01-07T11:02:01;3.63;;;2.83;;
76667;SDS011;65585;51.166;16.922;2024-01-07T11:04:38;7.85;;;4.00;;
76667;SDS011;65585;51.166;16.922;2024-01-07T11:07:19;4.38;;;3.42;;
76667;SDS011;65585;51.166;16.922;2024-01-07T11:12:54;5.75;;;3.60;;
76667;SDS011;65585;51.166;16.922;2024-01-07T11:18:16;6.47;;;3.35;;
76667;SDS011;65585;51.166;16.922;2024-01-07T11:20:46;7.18;;;3.67;;
76667;SDS011;65585;51.166;16.922;2024-01-07T11:26:03;7.38;;;4.75;;
76667;SDS011;65585;51.166;16.922;2024-01-07T11:28:45;11.68;;;5.53;;
76667;SDS011;65585;51.166;16.922;2024-01-07T11:31:13;12.10;;;6.18;;
76667;SDS011;65585;51.166;16.922;2024-01-07T11:33:48;12.02;;;6.35;;
76667;SDS011;65585;51.166;16.922;2024-01-07T11:36:15;6.53;;;3.08;;
76667;SDS011;65585;51.166;16.922;2024-01-07T11:38:42;10.57;;;4.00;;
76667;SDS011;65585;51.166;16.922;2024-01-07T11:41:13;9.60;;;4.28;;
76667;SDS011;65585;51.166;16.922;2024-01-07T11:43:53;9.10;;;6.45;;
76667;SDS011;65585;51.166;16.922;2024-01-07T11:46:20;7.50;;;4.75;;
76667;SDS011;65585;51.166;16.922;2024-01-07T11:48:47;12.70;;;6.28;;
76667;SDS011;65585;51.166;16.922;2024-01-07T11:51:14;5.22;;;4.22;;
76667;SDS011;65585;51.166;16.922;2024-01-07T11:53:39;6.75;;;4.03;;
76667;SDS011;65585;51.166;16.922;2024-01-07T11:56:08;6.35;;;4.45;;
76667;SDS011;65585;51.166;16.922;2024-01-07T11:58:34;12.23;;;4.38;;
76667;SDS011;65585;51.166;16.922;2024-01-07T12:01:00;7.03;;;4.55;;
76667;SDS011;65585;51.166;16.922;2024-01-07T12:03:28;8.48;;;4.53;;
76667;SDS011;65585;51.166;16.922;2024-01-07T12:05:54;11.23;;;5.07;;
76667;SDS011;65585;51.166;16.922;2024-01-07T12:08:20;6.30;;;3.95;;
76667;SDS011;65585;51.166;16.922;2024-01-07T12:10:46;15.98;;;7.15;;
76667;SDS011;65585;51.166;16.922;2024-01-07T12:13:13;7.63;;;4.60;;
76667;SDS011;65585;51.166;16.922;2024-01-07T12:15:39;7.43;;;5.22;;
76667;SDS011;65585;51.166;16.922;2024-01-07T12:18:05;7.90;;;3.95;;
76667;SDS011;65585;51.166;16.922;2024-01-07T12:20:31;13.75;;;5.95;;
76667;SDS011;65585;51.166;16.922;2024-01-07T12:22:58;9.50;;;5.35;;
76667;SDS011;65585;51.166;16.922;2024-01-07T12:25:34;7.65;;;4.47;;
76667;SDS011;65585;51.166;16.922;2024-01-07T12:28:00;7.13;;;4.43;;
76667;SDS011;65585;51.166;16.922;2024-01-07T12:30:27;8.05;;;4.57;;
76667;SDS011;65585;51.166;16.922;2024-01-07T12:32:54;13.00;;;6.85;;
76667;SDS011;65585;51.166;16.922;2024-01-07T12:35:20;6.00;;;3.88;;
76667;SDS011;65585;51.166;16.922;2024-01-07T12:37:48;9.18;;;5.05;;
76667;SDS011;65585;51.166;16.922;2024-01-07T12:40:15;7.18;;;5.07;;
76667;SDS011;65585;51.166;16.922;2024-01-07T12:42:41;7.70;;;4.25;;
76667;SDS011;65585;51.166;16.922;2024-01-07T12:45:14;6.50;;;4.63;;
76667;SDS011;65585;51.166;16.922;2024-01-07T12:47:40;7.85;;;5.07;;
76667;SDS011;65585;51.166;16.922;2024-01-07T12:50:11;7.30;;;3.53;;
76667;SDS011;65585;51.166;16.922;2024-01-07T12:52:37;6.53;;;4.85;;
76667;SDS011;65585;51.166;16.922;2024-01-07T12:55:05;6.75;;;4.80;;
76667;SDS011;65585;51.166;16.922;2024-01-07T12:57:32;9.88;;;6.90;;
76667;SDS011;65585;51.166;16.922;2024-01-07T13:00:02;12.27;;;5.78;;
76667;SDS011;65585;51.166;16.922;2024-01-07T13:02:31;7.18;;;5.10;;
76667;SDS011;65585;51.166;16.922;2024-01-07T13:04:59;9.40;;;5.30;;
76667;SDS011;65585;51.166;16.922;2024-01-07T13:07:24;7.80;;;4.90;;
76667;SDS011;65585;51.166;16.922;2024-01-07T13:09:51;10.40;;;5.32;;
76667;SDS011;65585;51.166;16.922;2024-01-07T13:12:17;8.80;;;4.55;;
76667;SDS011;65585;51.166;16.922;2024-01-07T13:14:43;10.20;;;5.20;;
76667;SDS011;65585;51.166;16.922;2024-01-07T13:17:12;9.25;;;4.75;;
76667;SDS011;65585;51.166;16.922;2024-01-07T13:19:39;8.70;;;4.88;;
76667;SDS011;65585;51.166;16.922;2024-01-07T13:22:04;9.68;;;5.18;;
76667;SDS011;65585;51.166;16.922;2024-01-07T13:24:31;9.20;;;4.82;;
76667;SDS011;65585;51.166;16.922;2024-01-07T13:26:56;7.50;;;4.30;;
76667;SDS011;65585;51.166;16.922;2024-01-07T13:29:23;11.15;;;5.95;;
76667;SDS011;65585;51.166;16.922;2024-01-07T13:31:50;8.32;;;5.40;;
76667;SDS011;65585;51.166;16.922;2024-01-07T13:34:16;11.75;;;4.95;;
76667;SDS011;65585;51.166;16.922;2024-01-07T13:36:43;10.25;;;4.93;;
76667;SDS011;65585;51.166;16.922;2024-01-07T13:39:10;9.75;;;4.60;;
76667;SDS011;65585;51.166;16.922;2024-01-07T13:41:36;9.63;;;6.35;;
76667;SDS011;65585;51.166;16.922;2024-01-07T13:44:02;10.05;;;6.28;;
76667;SDS011;65585;51.166;16.922;2024-01-07T13:46:28;9.48;;;5.55;;
76667;SDS011;65585;51.166;16.922;2024-01-07T13:48:54;9.55;;;4.95;;
76667;SDS011;65585;51.166;16.922;2024-01-07T13:51:20;9.02;;;4.95;;
76667;SDS011;65585;51.166;16.922;2024-01-07T13:53:46;9.27;;;4.78;;
76667;SDS011;65585;51.166;16.922;2024-01-07T13:56:12;6.63;;;5.38;;
76667;SDS011;65585;51.166;16.922;2024-01-07T13:58:38;6.00;;;4.13;;
76667;SDS011;65585;51.166;16.922;2024-01-07T14:01:04;8.02;;;4.88;;
76667;SDS011;65585;51.166;16.922;2024-01-07T14:03:31;10.02;;;5.65;;
76667;SDS011;65585;51.166;16.922;2024-01-07T14:05:58;11.85;;;5.85;;
76667;SDS011;65585;51.166;16.922;2024-01-07T14:08:24;11.82;;;6.55;;
76667;SDS011;65585;51.166;16.922;2024-01-07T14:10:50;10.73;;;6.05;;
76667;SDS011;65585;51.166;16.922;2024-01-07T14:13:16;12.43;;;5.63;;
76667;SDS011;65585;51.166;16.922;2024-01-07T14:15:42;15.77;;;8.32;;
76667;SDS011;65585;51.166;16.922;2024-01-07T14:18:09;11.77;;;6.38;;
76667;SDS011;65585;51.166;16.922;2024-01-07T14:20:35;7.57;;;4.72;;
76667;SDS011;65585;51.166;16.922;2024-01-07T14:23:02;6.63;;;4.03;;
76667;SDS011;65585;51.166;16.922;2024-01-07T14:25:28;10.27;;;5.47;;
76667;SDS011;65585;51.166;16.922;2024-01-07T14:27:54;10.25;;;7.55;;
76667;SDS011;65585;51.166;16.922;2024-01-07T14:30:20;12.27;;;4.65;;
76667;SDS011;65585;51.166;16.922;2024-01-07T14:32:46;15.82;;;6.32;;
76667;SDS011;65585;51.166;16.922;2024-01-07T14:35:12;9.35;;;5.85;;
76667;SDS011;65585;51.166;16.922;2024-01-07T14:37:39;13.23;;;5.82;;
76667;SDS011;65585;51.166;16.922;2024-01-07T14:40:06;6.50;;;3.55;;